createdAt,value
2018-05-26T00:00:48.692Z,955.39
2018-05-26T00:03:14.985Z,955.33
2018-05-26T00:05:41.283Z,955.24
2018-05-26T00:08:07.573Z,955.18
2018-05-26T00:10:33.871Z,955.13
2018-05-26T00:13:00.162Z,955.14
2018-05-26T00:15:26.461Z,955.13
2018-05-26T00:17:52.757Z,955.12
2018-05-26T00:20:19.048Z,955.11
2018-05-26T00:22:45.343Z,955.10
2018-05-26T00:25:11.638Z,955.07
2018-05-26T00:27:37.935Z,955.07
2018-05-26T00:30:04.275Z,954.99
2018-05-26T00:32:30.607Z,954.99
2018-05-26T00:34:56.898Z,955.03
2018-05-26T00:37:23.235Z,955.20
2018-05-26T00:39:49.528Z,955.06
2018-05-26T00:42:15.833Z,955.12
2018-05-26T00:44:42.161Z,955.11
2018-05-26T00:47:08.454Z,955.20
2018-05-26T00:49:34.786Z,955.18
2018-05-26T00:52:01.109Z,955.22
2018-05-26T00:54:27.442Z,955.25
2018-05-26T00:56:53.739Z,955.18
2018-05-26T00:59:20.040Z,955.18
2018-05-26T01:01:46.381Z,955.18
2018-05-26T01:04:12.677Z,955.17
2018-05-26T01:06:38.977Z,955.24
2018-05-26T01:09:05.268Z,955.27
2018-05-26T01:11:31.556Z,955.27
2018-05-26T01:13:57.853Z,955.28
2018-05-26T01:16:24.150Z,955.34
2018-05-26T01:18:50.448Z,955.30
2018-05-26T01:21:16.743Z,955.36
2018-05-26T01:23:43.036Z,955.37
2018-05-26T01:26:09.319Z,955.39
2018-05-26T01:28:35.611Z,955.51
2018-05-26T01:31:01.908Z,955.54
2018-05-26T01:33:28.195Z,955.49
2018-05-26T01:35:54.490Z,955.51
2018-05-26T01:38:20.780Z,955.50
2018-05-26T01:40:47.072Z,955.48
2018-05-26T01:43:13.359Z,955.54
2018-05-26T01:45:39.685Z,955.54
2018-05-26T01:48:05.971Z,955.53
2018-05-26T01:50:32.266Z,955.47
2018-05-26T01:52:58.555Z,955.50
2018-05-26T01:55:24.855Z,955.44
2018-05-26T01:57:51.156Z,955.51
2018-05-26T02:00:17.465Z,955.53
2018-05-26T02:02:43.760Z,955.57
2018-05-26T02:05:10.053Z,955.55
2018-05-26T02:07:36.371Z,955.61
2018-05-26T02:10:02.659Z,955.59
2018-05-26T02:12:28.951Z,955.57
2018-05-26T02:14:55.284Z,955.60
2018-05-26T02:17:21.572Z,955.58
2018-05-26T02:19:47.863Z,955.63
2018-05-26T02:22:14.151Z,955.72
2018-05-26T02:24:40.448Z,955.79
2018-05-26T02:27:06.739Z,955.82
2018-05-26T02:29:33.026Z,955.75
2018-05-26T02:31:59.322Z,955.77
2018-05-26T02:34:25.620Z,955.85
2018-05-26T02:36:51.912Z,955.86
2018-05-26T02:39:18.203Z,955.91
2018-05-26T02:41:44.502Z,955.91
2018-05-26T02:44:10.805Z,955.90
2018-05-26T02:46:37.102Z,955.96
2018-05-26T02:49:03.393Z,956.01
2018-05-26T02:51:29.682Z,956.06
2018-05-26T02:53:55.978Z,956.06
2018-05-26T02:56:22.281Z,956.12
2018-05-26T02:58:48.570Z,956.25
2018-05-26T03:01:14.869Z,956.21
2018-05-26T03:03:41.154Z,956.14
2018-05-26T03:06:07.441Z,956.23
2018-05-26T03:08:33.735Z,956.24
2018-05-26T03:11:00.029Z,956.30
2018-05-26T03:13:26.330Z,956.26
2018-05-26T03:15:52.635Z,956.33
2018-05-26T03:18:18.959Z,956.33
2018-05-26T03:20:45.243Z,956.35
2018-05-26T03:23:11.537Z,956.35
2018-05-26T03:25:37.828Z,956.30
2018-05-26T03:28:04.124Z,956.30
2018-05-26T03:30:30.447Z,956.35
2018-05-26T03:32:56.802Z,956.40
2018-05-26T03:35:23.113Z,956.45
2018-05-26T03:37:49.408Z,956.57
2018-05-26T03:40:15.724Z,956.51
2018-05-26T03:42:42.012Z,956.52
2018-05-26T03:45:08.305Z,956.49
2018-05-26T03:47:34.596Z,956.51
2018-05-26T03:50:00.938Z,956.58
2018-05-26T03:52:27.223Z,956.63
2018-05-26T03:54:53.529Z,956.58
2018-05-26T03:57:19.821Z,956.57
2018-05-26T03:59:46.113Z,956.61
2018-05-26T04:02:12.407Z,956.58
2018-05-26T04:04:38.697Z,956.65
2018-05-26T04:07:04.988Z,956.74
2018-05-26T04:09:31.287Z,956.72
2018-05-26T04:11:57.585Z,956.78
2018-05-26T04:14:23.880Z,956.81
2018-05-26T04:16:50.175Z,956.80
2018-05-26T04:19:16.459Z,956.83
2018-05-26T04:21:42.753Z,956.84
2018-05-26T04:24:09.042Z,956.91
2018-05-26T04:26:35.328Z,956.90
2018-05-26T04:29:01.617Z,956.86
2018-05-26T04:31:27.908Z,956.83
2018-05-26T04:33:54.201Z,956.81
2018-05-26T04:36:20.497Z,956.90
2018-05-26T04:38:46.793Z,956.96
2018-05-26T04:41:13.091Z,956.95
2018-05-26T04:43:39.384Z,956.90
2018-05-26T04:46:05.699Z,956.92
2018-05-26T04:48:32.029Z,957.05
2018-05-26T04:50:58.330Z,956.98
2018-05-26T04:53:24.622Z,957.01
2018-05-26T04:55:50.911Z,956.91
2018-05-26T04:58:17.195Z,956.93
2018-05-26T05:00:43.500Z,957.01
2018-05-26T05:03:09.796Z,957.00
2018-05-26T05:05:36.122Z,957.01
2018-05-26T05:08:02.406Z,956.93
2018-05-26T05:10:28.738Z,956.95
2018-05-26T05:12:55.000Z,956.96
2018-05-26T05:15:21.311Z,956.96
2018-05-26T05:17:47.599Z,957.02
2018-05-26T05:20:13.887Z,957.04
2018-05-26T05:22:40.187Z,957.13
2018-05-26T05:25:06.526Z,957.13
2018-05-26T05:27:32.818Z,957.08
2018-05-26T05:29:59.115Z,957.10
2018-05-26T05:32:25.407Z,957.10
2018-05-26T05:34:51.701Z,957.15
2018-05-26T05:37:18.018Z,957.13
2018-05-26T05:39:44.349Z,957.16
2018-05-26T05:42:10.643Z,957.16
2018-05-26T05:44:36.943Z,957.19
2018-05-26T05:47:03.235Z,957.20
2018-05-26T05:49:29.578Z,957.17
2018-05-26T05:51:55.882Z,957.18
2018-05-26T05:54:22.168Z,957.20
2018-05-26T05:56:48.463Z,957.22
2018-05-26T05:59:14.770Z,957.26
2018-05-26T06:01:41.071Z,957.28
2018-05-26T06:04:07.406Z,957.26
2018-05-26T06:06:33.708Z,957.18
2018-05-26T06:09:00.006Z,957.22
2018-05-26T06:11:26.297Z,957.22
2018-05-26T06:13:52.593Z,957.23
2018-05-26T06:16:18.889Z,957.17
2018-05-26T06:18:45.190Z,957.16
2018-05-26T06:21:11.497Z,957.20
2018-05-26T06:23:37.783Z,957.16
2018-05-26T06:26:04.093Z,957.29
2018-05-26T06:28:30.396Z,957.27
2018-05-26T06:30:56.700Z,957.26
2018-05-26T06:33:23.001Z,957.16
2018-05-26T06:35:49.370Z,957.14
2018-05-26T06:38:15.635Z,957.17
2018-05-26T06:40:41.929Z,957.20
2018-05-26T06:43:08.225Z,957.20
2018-05-26T06:45:34.525Z,957.17
2018-05-26T06:48:00.822Z,957.14
2018-05-26T06:50:27.165Z,957.14
2018-05-26T06:52:53.452Z,957.12
2018-05-26T06:55:19.789Z,957.14
2018-05-26T06:57:46.075Z,957.15
2018-05-26T07:00:12.424Z,957.15
2018-05-26T07:02:38.748Z,957.15
2018-05-26T07:05:05.043Z,957.23
2018-05-26T07:07:31.328Z,957.20
2018-05-26T07:09:57.639Z,957.16
2018-05-26T07:12:23.925Z,957.16
2018-05-26T07:14:50.222Z,957.11
2018-05-26T07:17:16.521Z,957.09
2018-05-26T07:19:42.810Z,957.15
2018-05-26T07:22:09.137Z,957.18
2018-05-26T07:24:35.432Z,957.17
2018-05-26T07:27:01.762Z,957.10
2018-05-26T07:29:28.075Z,957.09
2018-05-26T07:31:54.442Z,957.18
2018-05-26T07:34:20.731Z,957.21
2018-05-26T07:36:47.025Z,957.16
2018-05-26T07:39:13.372Z,957.15
2018-05-26T07:41:39.701Z,957.15
2018-05-26T07:44:05.988Z,957.18
2018-05-26T07:46:32.333Z,957.23
2018-05-26T07:48:58.638Z,957.23
2018-05-26T07:51:24.938Z,957.30
2018-05-26T07:53:51.230Z,957.19
2018-05-26T07:56:17.542Z,957.14
2018-05-26T07:58:43.926Z,957.09
2018-05-26T08:01:10.158Z,957.13
2018-05-26T08:03:36.493Z,957.10
2018-05-26T08:06:02.779Z,957.13
2018-05-26T08:08:29.089Z,957.16
2018-05-26T08:10:55.423Z,957.21
2018-05-26T08:13:21.667Z,957.12
2018-05-26T08:15:47.992Z,957.23
2018-05-26T08:18:14.326Z,957.18
2018-05-26T08:20:40.621Z,957.22
2018-05-26T08:23:06.903Z,957.24
2018-05-26T08:25:33.192Z,957.16
2018-05-26T08:27:59.487Z,957.18
2018-05-26T08:30:25.776Z,957.22
2018-05-26T08:32:52.063Z,957.18
2018-05-26T08:35:18.370Z,957.21
2018-05-26T08:37:44.656Z,957.18
2018-05-26T08:40:10.955Z,957.16
2018-05-26T08:42:37.253Z,957.08
2018-05-26T08:45:03.540Z,957.13
2018-05-26T08:47:29.835Z,957.18
2018-05-26T08:49:56.126Z,957.12
2018-05-26T08:52:22.424Z,957.09
2018-05-26T08:54:48.755Z,957.09
2018-05-26T08:57:15.003Z,957.07
2018-05-26T08:59:41.290Z,957.12
2018-05-26T09:02:07.585Z,957.00
2018-05-26T09:04:33.876Z,957.05
2018-05-26T09:07:00.170Z,957.03
2018-05-26T09:09:26.478Z,957.02
2018-05-26T09:11:52.838Z,957.04
2018-05-26T09:14:19.161Z,956.99
2018-05-26T09:16:45.454Z,956.93
2018-05-26T09:19:11.937Z,956.89
2018-05-26T09:21:38.126Z,956.93
2018-05-26T09:24:04.421Z,956.95
2018-05-26T09:26:30.716Z,956.95
2018-05-26T09:28:57.020Z,956.94
2018-05-26T09:31:23.372Z,956.90
2018-05-26T09:33:49.619Z,956.99
2018-05-26T09:36:15.908Z,956.97
2018-05-26T09:38:42.196Z,956.87
2018-05-26T09:41:08.503Z,956.89
2018-05-26T09:43:34.883Z,956.88
2018-05-26T09:46:01.156Z,956.83
2018-05-26T09:48:27.457Z,956.86
2018-05-26T09:50:53.750Z,956.86
2018-05-26T09:53:20.045Z,956.80
2018-05-26T09:55:46.337Z,956.87
2018-05-26T09:58:12.633Z,956.82
2018-05-26T10:00:38.925Z,956.83
2018-05-26T10:03:05.211Z,956.85
2018-05-26T10:05:31.510Z,956.83
2018-05-26T10:07:57.809Z,956.84
2018-05-26T10:10:24.101Z,956.74
2018-05-26T10:12:50.394Z,956.77
2018-05-26T10:15:16.683Z,956.78
2018-05-26T10:17:42.986Z,956.78
2018-05-26T10:20:09.279Z,956.91
2018-05-26T10:22:35.572Z,956.72
2018-05-26T10:25:01.879Z,956.82
2018-05-26T10:27:28.160Z,956.84
2018-05-26T10:29:54.457Z,956.76
2018-05-26T10:32:20.844Z,956.71
2018-05-26T10:34:47.086Z,956.66
2018-05-26T10:37:13.377Z,956.71
2018-05-26T10:39:39.666Z,956.72
2018-05-26T10:42:05.963Z,956.74
2018-05-26T10:44:32.295Z,956.65
2018-05-26T10:46:58.589Z,956.64
2018-05-26T10:49:24.938Z,956.65
2018-05-26T10:51:51.226Z,956.65
2018-05-26T10:54:17.515Z,956.58
2018-05-26T10:56:43.805Z,956.57
2018-05-26T10:59:10.104Z,956.48
2018-05-26T11:01:36.397Z,956.45
2018-05-26T11:04:02.694Z,956.47
2018-05-26T11:06:29.044Z,956.42
2018-05-26T11:08:55.339Z,956.45
2018-05-26T11:11:21.645Z,956.40
2018-05-26T11:13:47.990Z,956.44
2018-05-26T11:16:14.422Z,956.34
2018-05-26T11:18:40.633Z,956.36
2018-05-26T11:21:06.930Z,956.32
2018-05-26T11:23:33.231Z,956.32
2018-05-26T11:25:59.566Z,956.32
2018-05-26T11:28:25.854Z,956.30
2018-05-26T11:30:52.186Z,956.32
2018-05-26T11:33:18.440Z,956.29
2018-05-26T11:35:44.774Z,956.26
2018-05-26T11:38:11.074Z,956.24
2018-05-26T11:40:37.370Z,956.24
2018-05-26T11:43:03.660Z,956.26
2018-05-26T11:45:29.969Z,956.24
2018-05-26T11:47:56.267Z,956.19
2018-05-26T11:50:22.567Z,956.23
2018-05-26T11:52:48.898Z,956.17
2018-05-26T11:55:15.196Z,956.05
2018-05-26T11:57:41.495Z,956.07
2018-05-26T12:00:07.839Z,956.12
2018-05-26T12:02:34.123Z,956.05
2018-05-26T12:05:00.415Z,956.08
2018-05-26T12:07:26.713Z,956.07
2018-05-26T12:09:53.011Z,956.07
2018-05-26T12:12:19.363Z,956.03
2018-05-26T12:14:45.599Z,956.06
2018-05-26T12:17:11.891Z,956.03
2018-05-26T12:19:38.177Z,955.96
2018-05-26T12:22:04.473Z,955.96
2018-05-26T12:24:30.773Z,955.89
2018-05-26T12:26:57.088Z,955.90
2018-05-26T12:29:23.361Z,955.84
2018-05-26T12:31:49.666Z,955.72
2018-05-26T12:34:15.954Z,955.75
2018-05-26T12:36:42.267Z,955.74
2018-05-26T12:39:08.561Z,955.73
2018-05-26T12:41:34.912Z,955.74
2018-05-26T12:44:01.205Z,955.73
2018-05-26T12:46:27.551Z,955.70
2018-05-26T12:48:53.815Z,955.63
2018-05-26T12:51:20.120Z,955.69
2018-05-26T12:53:46.416Z,955.78
2018-05-26T12:56:12.726Z,955.71
2018-05-26T12:58:39.000Z,955.72
2018-05-26T13:01:05.293Z,955.75
2018-05-26T13:03:31.600Z,955.61
2018-05-26T13:05:57.890Z,955.66
2018-05-26T13:08:24.182Z,955.62
2018-05-26T13:10:50.476Z,955.58
2018-05-26T13:13:16.771Z,955.56
2018-05-26T13:15:43.064Z,955.60
2018-05-26T13:18:09.391Z,955.60
2018-05-26T13:20:35.675Z,955.64
2018-05-26T13:23:02.029Z,955.69
2018-05-26T13:25:28.363Z,955.71
2018-05-26T13:27:54.659Z,955.70
2018-05-26T13:30:20.955Z,955.69
2018-05-26T13:32:47.249Z,955.65
2018-05-26T13:35:13.559Z,955.79
2018-05-26T13:37:39.846Z,955.68
2018-05-26T13:40:06.168Z,955.68
2018-05-26T13:42:32.441Z,955.65
2018-05-26T13:44:58.734Z,955.63
2018-05-26T13:47:25.034Z,955.64
2018-05-26T13:49:51.321Z,955.64
2018-05-26T13:52:17.666Z,955.61
2018-05-26T13:54:43.945Z,955.71
2018-05-26T13:57:10.279Z,955.55
2018-05-26T13:59:36.565Z,955.51
2018-05-26T14:02:02.864Z,955.57
2018-05-26T14:04:29.160Z,955.63
2018-05-26T14:06:55.453Z,955.48
2018-05-26T14:09:21.755Z,955.45
2018-05-26T14:11:48.050Z,955.45
2018-05-26T14:14:14.340Z,955.35
2018-05-26T14:16:40.627Z,955.39
2018-05-26T14:19:06.985Z,955.37
2018-05-26T14:21:33.276Z,955.29
2018-05-26T14:23:59.563Z,955.36
2018-05-26T14:26:25.870Z,955.31
2018-05-26T14:28:52.164Z,955.31
2018-05-26T14:31:18.457Z,955.35
2018-05-26T14:33:44.770Z,955.29
2018-05-26T14:36:11.059Z,955.31
2018-05-26T14:38:37.355Z,955.33
2018-05-26T14:41:03.649Z,955.29
2018-05-26T14:43:29.949Z,955.35
2018-05-26T14:45:56.243Z,955.31
2018-05-26T14:48:22.590Z,955.27
2018-05-26T14:50:48.863Z,955.27
2018-05-26T14:53:15.157Z,955.25
2018-05-26T14:55:41.453Z,955.18
2018-05-26T14:58:07.770Z,955.13
2018-05-26T15:00:34.062Z,955.06
2018-05-26T15:03:00.362Z,955.06
2018-05-26T15:05:26.661Z,954.96
2018-05-26T15:07:52.969Z,954.90
2018-05-26T15:10:19.315Z,954.94
2018-05-26T15:12:45.680Z,954.95
2018-05-26T15:15:11.897Z,954.85
2018-05-26T15:17:38.230Z,954.94
2018-05-26T15:20:04.531Z,954.97
2018-05-26T15:22:30.834Z,955.10
2018-05-26T15:24:57.126Z,955.02
2018-05-26T15:27:23.459Z,955.07
2018-05-26T15:29:49.759Z,955.06
2018-05-26T15:32:16.072Z,955.11
2018-05-26T15:34:42.366Z,955.16
2018-05-26T15:37:08.732Z,955.15
2018-05-26T15:39:35.029Z,955.18
2018-05-26T15:42:01.315Z,955.26
2018-05-26T15:44:27.663Z,955.31
2018-05-26T15:46:53.954Z,955.35
2018-05-26T15:49:20.239Z,955.35
2018-05-26T15:51:46.526Z,955.39
2018-05-26T15:54:12.828Z,955.42
2018-05-26T15:56:39.159Z,955.48
2018-05-26T15:59:05.451Z,955.50
2018-05-26T16:01:31.754Z,955.47
2018-05-26T16:03:58.054Z,955.53
2018-05-26T16:06:24.349Z,955.51
2018-05-26T16:08:50.643Z,955.59
2018-05-26T16:11:17.006Z,955.61
2018-05-26T16:13:43.300Z,955.64
2018-05-26T16:16:09.589Z,955.69
2018-05-26T16:18:35.938Z,955.70
2018-05-26T16:21:02.215Z,955.73
2018-05-26T16:23:28.502Z,955.85
2018-05-26T16:25:54.808Z,955.89
2018-05-26T16:28:21.100Z,955.86
2018-05-26T16:30:47.414Z,955.82
2018-05-26T16:33:13.717Z,955.90
2018-05-26T16:35:40.003Z,955.84
2018-05-26T16:38:06.303Z,955.87
2018-05-26T16:40:32.601Z,955.96
2018-05-26T16:42:58.900Z,956.02
2018-05-26T16:45:25.218Z,956.16
2018-05-26T16:47:51.494Z,956.11
2018-05-26T16:50:17.802Z,956.23
2018-05-26T16:52:44.090Z,956.23
2018-05-26T16:55:10.390Z,956.26
2018-05-26T16:57:36.751Z,956.23
2018-05-26T17:00:03.039Z,956.23
2018-05-26T17:02:29.332Z,956.31
2018-05-26T17:04:55.624Z,956.27
2018-05-26T17:07:21.958Z,956.31
2018-05-26T17:09:48.289Z,956.35
2018-05-26T17:12:14.623Z,956.28
2018-05-26T17:14:40.929Z,956.38
2018-05-26T17:17:07.229Z,956.40
2018-05-26T17:19:33.527Z,956.40
2018-05-26T17:21:59.823Z,956.44
2018-05-26T17:24:26.107Z,956.49
2018-05-26T17:26:52.396Z,956.51
2018-05-26T17:29:18.728Z,956.57
2018-05-26T17:31:44.983Z,956.54
2018-05-26T17:34:11.293Z,956.54
2018-05-26T17:36:37.637Z,956.48
2018-05-26T17:39:03.878Z,956.48
2018-05-26T17:41:30.170Z,956.50
2018-05-26T17:43:56.463Z,956.56
2018-05-26T17:46:22.757Z,956.52
2018-05-26T17:48:49.060Z,956.59
2018-05-26T17:51:15.374Z,956.59
2018-05-26T17:53:41.675Z,956.64
2018-05-26T17:56:07.979Z,956.62
2018-05-26T17:58:34.274Z,956.62
2018-05-26T18:01:00.574Z,956.65
2018-05-26T18:03:26.879Z,956.68
2018-05-26T18:05:53.175Z,956.78
2018-05-26T18:08:19.518Z,956.78
2018-05-26T18:10:45.860Z,956.80
2018-05-26T18:13:12.171Z,956.80
2018-05-26T18:15:38.509Z,956.79
2018-05-26T18:18:04.791Z,956.82
2018-05-26T18:20:31.180Z,956.80
2018-05-26T18:22:57.429Z,956.84
2018-05-26T18:25:23.723Z,956.93
2018-05-26T18:27:50.018Z,956.97
2018-05-26T18:30:16.303Z,957.02
2018-05-26T18:32:42.600Z,957.21
2018-05-26T18:35:08.893Z,957.28
2018-05-26T18:37:35.187Z,957.27
2018-05-26T18:40:01.479Z,957.35
2018-05-26T18:42:27.772Z,957.41
2018-05-26T18:44:54.066Z,957.44
2018-05-26T18:47:20.401Z,957.50
2018-05-26T18:49:46.700Z,957.53
2018-05-26T18:52:12.989Z,957.56
2018-05-26T18:54:39.291Z,957.55
2018-05-26T18:57:05.582Z,957.59
2018-05-26T18:59:31.867Z,957.61
2018-05-26T19:01:58.158Z,957.60
2018-05-26T19:04:24.446Z,957.68
2018-05-26T19:06:50.739Z,957.70
2018-05-26T19:09:17.037Z,957.67
2018-05-26T19:11:43.335Z,957.71
2018-05-26T19:14:09.639Z,957.77
2018-05-26T19:16:35.936Z,957.75
2018-05-26T19:19:02.222Z,957.77
2018-05-26T19:21:28.521Z,957.78
2018-05-26T19:23:54.814Z,957.78
2018-05-26T19:26:21.105Z,957.83
2018-05-26T19:28:47.415Z,957.83
2018-05-26T19:31:13.752Z,957.82
2018-05-26T19:33:40.047Z,957.85
2018-05-26T19:36:06.383Z,957.86
2018-05-26T19:38:32.698Z,957.87
2018-05-26T19:40:58.988Z,957.92
2018-05-26T19:43:25.282Z,957.85
2018-05-26T19:45:51.586Z,957.85
2018-05-26T19:48:17.937Z,957.95
2018-05-26T19:50:44.226Z,957.88
2018-05-26T19:53:10.521Z,957.90
2018-05-26T19:55:36.849Z,957.95
2018-05-26T19:58:03.187Z,957.88
2018-05-26T20:00:29.523Z,957.98
2018-05-26T20:02:55.820Z,957.96
2018-05-26T20:05:22.111Z,957.98
2018-05-26T20:07:48.411Z,958.00
2018-05-26T20:10:14.754Z,958.02
2018-05-26T20:12:41.050Z,958.02
2018-05-26T20:15:07.348Z,958.01
2018-05-26T20:17:33.652Z,957.96
2018-05-26T20:19:59.947Z,957.99
2018-05-26T20:22:26.244Z,957.97
2018-05-26T20:24:52.534Z,957.90
2018-05-26T20:27:18.830Z,957.89
2018-05-26T20:29:45.124Z,957.88
2018-05-26T20:32:11.418Z,957.91
2018-05-26T20:34:37.712Z,957.97
2018-05-26T20:37:04.020Z,957.96
2018-05-26T20:39:30.312Z,957.91
2018-05-26T20:41:56.607Z,957.92
2018-05-26T20:44:22.893Z,957.86
2018-05-26T20:46:49.184Z,957.77
2018-05-26T20:49:15.481Z,957.75
2018-05-26T20:51:41.769Z,957.77
2018-05-26T20:54:08.112Z,957.71
2018-05-26T20:56:34.405Z,957.69
2018-05-26T20:59:00.700Z,957.70
2018-05-26T21:01:27.002Z,957.61
2018-05-26T21:03:53.300Z,957.57
2018-05-26T21:06:19.630Z,957.60
2018-05-26T21:08:45.917Z,957.62
2018-05-26T21:11:12.208Z,957.72
2018-05-26T21:13:38.500Z,957.59
2018-05-26T21:16:04.803Z,957.63
2018-05-26T21:18:31.134Z,957.67
2018-05-26T21:20:57.433Z,957.69
2018-05-26T21:23:23.732Z,957.71
2018-05-26T21:25:50.034Z,957.69
2018-05-26T21:28:16.319Z,957.77
2018-05-26T21:30:42.647Z,957.80
2018-05-26T21:33:08.937Z,957.81
2018-05-26T21:35:35.234Z,957.87
2018-05-26T21:38:01.546Z,957.79
2018-05-26T21:40:27.837Z,957.86
2018-05-26T21:42:54.124Z,957.79
2018-05-26T21:45:20.425Z,957.83
2018-05-26T21:47:46.732Z,957.89
2018-05-26T21:50:13.027Z,957.92
2018-05-26T21:52:39.320Z,957.88
2018-05-26T21:55:05.613Z,957.86
2018-05-26T21:57:31.903Z,957.83
2018-05-26T21:59:58.196Z,957.87
2018-05-26T22:02:24.489Z,957.88
2018-05-26T22:04:50.773Z,957.94
2018-05-26T22:07:17.102Z,957.96
2018-05-26T22:09:43.394Z,957.88
2018-05-26T22:12:09.685Z,957.85
2018-05-26T22:14:35.971Z,957.85
2018-05-26T22:17:02.256Z,957.80
2018-05-26T22:19:28.603Z,957.81
2018-05-26T22:21:54.891Z,957.78
2018-05-26T22:24:21.189Z,957.76
2018-05-26T22:26:47.477Z,957.74
2018-05-26T22:29:13.788Z,957.76
2018-05-26T22:31:40.076Z,957.80
2018-05-26T22:34:06.366Z,957.76
2018-05-26T22:36:32.666Z,957.72
2018-05-26T22:38:58.966Z,957.69
2018-05-26T22:41:25.265Z,957.60
2018-05-26T22:43:51.560Z,957.56
2018-05-26T22:46:17.848Z,957.58
2018-05-26T22:48:44.179Z,957.51
2018-05-26T22:51:10.467Z,957.58
2018-05-26T22:53:36.818Z,957.60
2018-05-26T22:56:03.060Z,957.57
2018-05-26T22:58:29.347Z,957.60
2018-05-26T23:00:55.639Z,957.70
2018-05-26T23:03:21.953Z,957.71
2018-05-26T23:05:48.276Z,957.64
2018-05-26T23:08:14.545Z,957.63
2018-05-26T23:10:40.842Z,957.68
2018-05-26T23:13:07.133Z,957.70
2018-05-26T23:15:33.472Z,957.76
2018-05-26T23:17:59.768Z,957.69
2018-05-26T23:20:26.104Z,957.70
2018-05-26T23:22:52.396Z,957.66
2018-05-26T23:25:18.687Z,957.68
2018-05-26T23:27:44.973Z,957.64
2018-05-26T23:30:11.266Z,957.62
2018-05-26T23:32:46.868Z,957.70
2018-05-26T23:35:14.211Z,957.67
2018-05-26T23:37:38.119Z,957.70
2018-05-26T23:40:04.404Z,957.64
2018-05-26T23:42:30.701Z,957.56
2018-05-26T23:44:56.994Z,957.51
2018-05-26T23:47:23.288Z,957.53
2018-05-26T23:49:49.582Z,957.59
2018-05-26T23:52:15.878Z,957.58
2018-05-26T23:54:42.177Z,957.59
2018-05-26T23:57:08.469Z,957.59
2018-05-26T23:59:34.762Z,957.63
